White Cap, Mississippi
Current Conditions -  °F | °C
As of 5:53 AM on Friday 28 Nov 2014 (Local Time) from KMCB Reporting Station
Clear Clear  
Wind Chill: 32°   Ceiling: Unl
Heat Index: 32°   Visibility: 10mi
Dew Point: 27°   Wind: 0mph
Humidity: 82%   Direction: NA
Pressure: 30.42"   Gusts: NA
Location:  31.1819°N, 90.9008°W
Report Text: KMCB 281153Z AUTO 00000KT 10SM CLR 00/M03 A3042 RMK AO2 SLP302 T00001028 10039 20000 53000
Loading
Personal Weather Stations






























Interactive Weather Map New forecast layout! Learn more

10-Day Weather Forecast

Advertisements
Track Severe Weather on mobile